createdAt,value
2022-12-08T00:01:45.024Z,20.03
2022-12-08T00:03:33.147Z,21.27
2022-12-08T00:07:44.687Z,18.63
2022-12-08T00:09:38.777Z,18.48
2022-12-08T00:11:27.005Z,17.90
2022-12-08T00:13:14.010Z,18.02
2022-12-08T00:15:01.724Z,20.42
2022-12-08T00:16:49.875Z,17.30
2022-12-08T00:18:37.478Z,19.08
2022-12-08T00:22:13.446Z,17.15
2022-12-08T00:24:00.525Z,21.67
2022-12-08T00:25:47.774Z,17.70
2022-12-08T00:27:34.764Z,16.80
2022-12-08T00:29:21.781Z,18.17
2022-12-08T00:31:11.036Z,21.85
2022-12-08T00:32:58.016Z,20.88
2022-12-08T00:34:45.063Z,24.07
2022-12-08T00:36:33.155Z,21.50
2022-12-08T00:38:20.414Z,24.25
2022-12-08T00:40:09.108Z,20.60
2022-12-08T00:44:02.303Z,20.27
2022-12-08T00:45:49.417Z,21.55
2022-12-08T00:47:36.710Z,20.98
2022-12-08T00:49:24.040Z,20.60
2022-12-08T00:51:11.062Z,25.33
2022-12-08T00:52:58.671Z,24.15
2022-12-08T00:54:45.707Z,33.80
2022-12-08T00:56:33.673Z,32.07
2022-12-08T00:58:21.076Z,27.30
2022-12-08T01:00:08.704Z,27.70
2022-12-08T01:01:55.688Z,23.17
2022-12-08T01:03:43.316Z,26.65
2022-12-08T01:05:30.542Z,20.27
2022-12-08T01:07:17.612Z,21.97
2022-12-08T01:09:06.774Z,25.85
2022-12-08T01:10:53.810Z,30.90
2022-12-08T01:12:40.825Z,25.50
2022-12-08T01:14:28.298Z,23.58
2022-12-08T01:16:23.885Z,26.23
2022-12-08T01:18:10.979Z,22.83
2022-12-08T01:19:58.508Z,25.90
2022-12-08T01:21:45.916Z,25.92
2022-12-08T01:23:33.538Z,27.15
2022-12-08T01:27:07.989Z,20.90
2022-12-08T01:28:54.958Z,22.60
2022-12-08T01:30:42.342Z,23.60
2022-12-08T01:32:29.460Z,31.42
2022-12-08T01:34:17.024Z,27.30
2022-12-08T01:36:05.565Z,27.67
2022-12-08T01:37:52.592Z,26.40
2022-12-08T01:39:41.300Z,26.52
2022-12-08T01:41:31.313Z,27.00
2022-12-08T01:43:20.658Z,21.60
2022-12-08T01:45:22.749Z,25.60
2022-12-08T01:47:10.425Z,25.58
2022-12-08T01:49:17.253Z,25.00
2022-12-08T01:51:05.555Z,17.42
2022-12-08T01:52:57.410Z,19.83
2022-12-08T01:54:50.478Z,28.13
2022-12-08T01:56:52.069Z,22.80
2022-12-08T01:58:43.006Z,33.30
2022-12-08T02:00:30.050Z,28.75
2022-12-08T02:02:17.151Z,30.70
2022-12-08T02:04:05.488Z,27.13
2022-12-08T02:05:53.027Z,21.58
2022-12-08T02:07:41.071Z,19.40
2022-12-08T02:09:28.722Z,19.52
2022-12-08T02:11:16.104Z,19.45
2022-12-08T02:13:04.514Z,20.63
2022-12-08T02:14:51.774Z,18.88
2022-12-08T02:16:55.635Z,19.37
2022-12-08T02:19:30.858Z,24.85
2022-12-08T02:21:35.523Z,16.88
2022-12-08T02:23:41.736Z,17.23
2022-12-08T02:25:52.158Z,17.65
2022-12-08T02:28:03.691Z,15.20
2022-12-08T02:30:19.964Z,17.90
2022-12-08T02:32:22.269Z,20.52
2022-12-08T02:34:12.312Z,22.58
2022-12-08T02:36:09.036Z,20.50
2022-12-08T02:38:05.327Z,16.30
2022-12-08T02:40:03.390Z,18.58
2022-12-08T02:42:10.133Z,28.55
2022-12-08T02:44:05.175Z,21.15
2022-12-08T02:45:59.761Z,20.63
2022-12-08T02:47:47.454Z,21.25
2022-12-08T02:49:35.545Z,24.77
2022-12-08T02:51:23.162Z,18.90
2022-12-08T02:55:27.792Z,16.45
2022-12-08T02:57:20.477Z,19.08
2022-12-08T02:59:21.271Z,21.25
2022-12-08T03:01:42.660Z,23.90
2022-12-08T03:03:46.544Z,18.73
2022-12-08T03:05:59.797Z,20.58
2022-12-08T03:08:15.010Z,23.08
2022-12-08T03:10:12.484Z,16.48
2022-12-08T03:12:14.632Z,23.80
2022-12-08T03:14:04.325Z,16.70
2022-12-08T03:15:53.182Z,17.95
2022-12-08T03:17:45.948Z,24.67
2022-12-08T03:19:37.318Z,19.30
2022-12-08T03:21:25.159Z,20.60
2022-12-08T03:23:14.627Z,22.58
2022-12-08T03:25:02.150Z,18.55
2022-12-08T03:26:59.661Z,25.92
2022-12-08T03:28:47.038Z,23.38
2022-12-08T03:30:38.836Z,17.55
2022-12-08T03:32:40.732Z,18.55
2022-12-08T03:34:29.938Z,17.65
2022-12-08T03:36:17.518Z,20.13
2022-12-08T03:39:58.481Z,16.67
2022-12-08T03:41:47.074Z,18.47
2022-12-08T03:43:34.488Z,16.75
2022-12-08T03:45:21.633Z,22.23
2022-12-08T03:47:08.766Z,18.70
2022-12-08T03:48:56.718Z,20.75
2022-12-08T03:50:43.863Z,20.27
2022-12-08T03:52:30.811Z,26.93
2022-12-08T03:54:18.166Z,21.73
2022-12-08T03:56:13.871Z,19.73
2022-12-08T03:58:00.946Z,18.40
2022-12-08T03:59:48.267Z,15.60
2022-12-08T04:01:35.258Z,13.90
2022-12-08T04:03:22.337Z,18.58
2022-12-08T04:05:09.830Z,16.77
2022-12-08T04:06:56.998Z,16.98
2022-12-08T04:08:44.098Z,19.05
2022-12-08T04:10:31.519Z,19.73
2022-12-08T04:12:18.527Z,17.67
2022-12-08T04:14:05.474Z,26.00
2022-12-08T04:15:52.850Z,36.58
2022-12-08T04:17:39.881Z,20.80
2022-12-08T04:19:27.034Z,20.53
2022-12-08T04:21:15.159Z,26.75
2022-12-08T04:24:50.206Z,19.38
2022-12-08T04:26:37.507Z,18.33
2022-12-08T04:28:24.606Z,15.83
2022-12-08T04:30:12.006Z,25.70
2022-12-08T04:31:59.402Z,28.10
2022-12-08T04:33:46.600Z,20.20
2022-12-08T04:35:33.585Z,19.15
2022-12-08T04:37:20.944Z,42.80
2022-12-08T04:39:07.992Z,42.35
2022-12-08T04:40:55.266Z,31.65
2022-12-08T04:42:42.623Z,29.83
2022-12-08T04:44:30.336Z,30.90
2022-12-08T04:46:17.495Z,41.92
2022-12-08T04:48:07.284Z,64.05
2022-12-08T04:49:54.271Z,32.20
2022-12-08T04:51:41.285Z,31.90
2022-12-08T04:53:28.584Z,33.05
2022-12-08T04:55:15.691Z,32.67
2022-12-08T04:57:02.732Z,23.33
2022-12-08T04:58:50.103Z,25.08
2022-12-08T05:00:37.109Z,24.50
2022-12-08T05:02:24.160Z,22.27
2022-12-08T05:04:11.534Z,20.88
2022-12-08T05:06:00.598Z,32.72
2022-12-08T05:07:47.718Z,55.40
2022-12-08T05:09:35.228Z,40.72
2022-12-08T05:11:22.274Z,50.50
2022-12-08T05:13:09.257Z,50.57
2022-12-08T05:14:56.584Z,54.90
2022-12-08T05:16:44.387Z,65.63
2022-12-08T05:18:31.644Z,47.10
2022-12-08T05:20:19.167Z,31.58
2022-12-08T05:22:06.236Z,37.65
2022-12-08T05:23:53.262Z,37.37
2022-12-08T05:25:40.685Z,52.72
2022-12-08T05:27:27.794Z,68.28
2022-12-08T05:29:14.763Z,79.87
2022-12-08T05:31:02.257Z,99.53
2022-12-08T05:32:49.320Z,97.30
2022-12-08T05:34:36.430Z,94.13
2022-12-08T05:36:23.865Z,94.90
2022-12-08T05:38:11.790Z,82.30
2022-12-08T05:39:58.796Z,82.90
2022-12-08T05:41:46.243Z,73.07
2022-12-08T05:43:33.314Z,66.75
2022-12-08T05:45:20.516Z,69.78
2022-12-08T05:47:07.908Z,71.68
2022-12-08T05:48:55.043Z,70.10
2022-12-08T05:50:47.546Z,78.73
2022-12-08T05:52:34.895Z,77.75
2022-12-08T05:54:22.000Z,77.93
2022-12-08T05:56:09.208Z,65.25
2022-12-08T05:57:56.572Z,66.65
2022-12-08T05:59:43.708Z,81.47
2022-12-08T06:01:31.777Z,77.78
2022-12-08T06:03:20.341Z,77.60
2022-12-08T06:05:07.921Z,69.50
2022-12-08T06:06:56.319Z,73.38
2022-12-08T06:08:43.802Z,66.38
2022-12-08T06:10:30.975Z,99.93
2022-12-08T06:12:18.083Z,74.97
2022-12-08T06:14:05.784Z,72.10
2022-12-08T06:15:53.232Z,50.17
2022-12-08T06:17:40.502Z,53.10
2022-12-08T06:19:27.999Z,95.53
2022-12-08T06:21:17.171Z,77.50
2022-12-08T06:23:04.570Z,72.15
2022-12-08T06:24:52.243Z,99.93
2022-12-08T06:26:41.395Z,90.82
2022-12-08T06:28:29.770Z,125.28
2022-12-08T06:30:17.828Z,109.38
2022-12-08T06:32:05.108Z,74.30
2022-12-08T06:33:53.102Z,99.13
2022-12-08T06:35:40.919Z,99.15
2022-12-08T06:37:27.917Z,72.28
2022-12-08T06:39:15.049Z,75.07
2022-12-08T06:41:02.504Z,57.70
2022-12-08T06:42:49.683Z,53.70
2022-12-08T06:44:36.686Z,87.87
2022-12-08T06:46:24.650Z,113.57
2022-12-08T06:48:11.807Z,116.50
2022-12-08T06:49:59.033Z,87.47
2022-12-08T06:51:46.444Z,66.82
2022-12-08T06:53:33.514Z,85.80
2022-12-08T06:55:57.947Z,68.37
2022-12-08T06:57:54.803Z,77.85
2022-12-08T06:59:42.961Z,77.32
2022-12-08T07:01:31.531Z,67.78
2022-12-08T07:03:37.653Z,74.43
2022-12-08T07:05:31.822Z,87.28
2022-12-08T07:07:18.876Z,193.75
2022-12-08T07:09:06.613Z,112.75
2022-12-08T07:10:53.621Z,107.55
2022-12-08T07:12:40.677Z,94.82
2022-12-08T07:14:28.176Z,89.95
2022-12-08T07:16:15.443Z,66.53
2022-12-08T07:18:02.537Z,71.05
2022-12-08T07:19:50.079Z,55.28
2022-12-08T07:21:37.126Z,68.68
2022-12-08T07:23:24.155Z,64.00
2022-12-08T07:25:11.457Z,52.13
2022-12-08T07:26:58.614Z,59.40
2022-12-08T07:28:45.589Z,64.00
2022-12-08T07:30:32.949Z,67.03
2022-12-08T07:32:20.063Z,77.30
2022-12-08T07:34:07.261Z,61.30
2022-12-08T07:35:59.137Z,42.47
2022-12-08T07:37:46.235Z,56.95
2022-12-08T07:39:33.479Z,72.80
2022-12-08T07:41:24.175Z,49.75
2022-12-08T07:43:11.225Z,56.38
2022-12-08T07:44:59.124Z,49.50
2022-12-08T07:46:46.598Z,67.25
2022-12-08T07:48:33.787Z,70.32
2022-12-08T07:50:20.931Z,55.90
2022-12-08T07:52:08.765Z,62.90
2022-12-08T07:53:55.827Z,69.43
2022-12-08T07:55:44.194Z,55.72
2022-12-08T07:57:31.553Z,61.92
2022-12-08T07:59:19.658Z,57.33
2022-12-08T08:02:54.439Z,66.90
2022-12-08T08:04:41.530Z,51.28
2022-12-08T08:06:28.970Z,71.45
2022-12-08T08:08:17.526Z,69.20
2022-12-08T08:10:06.894Z,62.50
2022-12-08T08:12:22.350Z,67.00
2022-12-08T08:15:50.908Z,64.00
2022-12-08T08:17:38.608Z,70.30
2022-12-08T08:21:43.629Z,66.32
2022-12-08T08:23:20.166Z,58.22
2022-12-08T08:25:08.023Z,57.60
2022-12-08T08:26:55.391Z,84.85
2022-12-08T08:28:43.833Z,69.90
2022-12-08T08:30:31.153Z,58.67
2022-12-08T08:32:18.353Z,63.40
2022-12-08T08:34:06.350Z,57.47
2022-12-08T08:35:55.063Z,56.22
2022-12-08T08:37:47.237Z,60.30
2022-12-08T08:39:36.033Z,65.53
2022-12-08T08:41:23.366Z,59.97
2022-12-08T08:43:31.565Z,61.45
2022-12-08T08:45:23.305Z,55.35
2022-12-08T08:47:10.973Z,52.78
2022-12-08T08:48:58.164Z,49.42
2022-12-08T08:50:45.216Z,57.97
2022-12-08T08:52:32.819Z,45.03
2022-12-08T08:54:19.898Z,56.15
2022-12-08T08:56:12.516Z,49.20
2022-12-08T08:58:00.039Z,46.13
2022-12-08T08:59:47.209Z,48.55
2022-12-08T09:01:34.629Z,50.83
2022-12-08T09:03:21.943Z,57.42
2022-12-08T09:05:09.299Z,58.90
2022-12-08T09:06:56.559Z,57.22
2022-12-08T09:08:44.738Z,62.92
2022-12-08T09:10:31.852Z,57.35
2022-12-08T09:12:19.279Z,57.75
2022-12-08T09:14:07.269Z,63.97
2022-12-08T09:15:54.663Z,52.10
2022-12-08T09:17:41.743Z,60.10
2022-12-08T09:19:29.088Z,193.05
2022-12-08T09:21:22.359Z,84.63
2022-12-08T09:23:09.571Z,51.67
2022-12-08T09:24:57.010Z,49.72
2022-12-08T09:26:44.955Z,39.90
2022-12-08T09:28:32.904Z,54.25
2022-12-08T09:30:20.388Z,48.78
2022-12-08T09:32:07.561Z,40.15
2022-12-08T09:33:54.770Z,49.38
2022-12-08T09:35:42.125Z,42.08
2022-12-08T09:37:29.277Z,43.57
2022-12-08T09:39:16.455Z,45.92
2022-12-08T09:41:11.718Z,34.10
2022-12-08T09:43:37.319Z,42.40
2022-12-08T09:45:29.143Z,45.30
2022-12-08T09:47:35.553Z,38.85
2022-12-08T09:49:47.182Z,46.05
2022-12-08T09:51:40.505Z,39.08
2022-12-08T09:53:36.922Z,40.63
2022-12-08T09:55:35.337Z,39.15
2022-12-08T09:57:24.430Z,41.15
2022-12-08T09:59:33.643Z,41.70
2022-12-08T10:01:23.256Z,42.35
2022-12-08T10:03:16.634Z,40.60
2022-12-08T10:05:05.087Z,38.40
2022-12-08T10:06:55.350Z,39.95
2022-12-08T10:09:22.633Z,36.95
2022-12-08T10:11:25.296Z,38.88
2022-12-08T10:13:27.843Z,36.45
2022-12-08T10:16:02.179Z,33.58
2022-12-08T10:17:51.933Z,40.25
2022-12-08T10:19:42.654Z,37.28
2022-12-08T10:21:32.451Z,40.35
2022-12-08T10:23:36.318Z,41.20
2022-12-08T10:25:35.492Z,40.22
2022-12-08T10:27:23.640Z,33.65
2022-12-08T10:29:15.069Z,36.17
2022-12-08T10:31:02.468Z,28.05
2022-12-08T10:32:52.059Z,39.15
2022-12-08T10:35:00.308Z,31.67
2022-12-08T10:36:56.317Z,35.58
2022-12-08T10:38:43.411Z,31.50
2022-12-08T10:40:42.185Z,31.60
2022-12-08T10:42:46.175Z,33.95
2022-12-08T10:44:33.780Z,31.05
2022-12-08T10:46:25.933Z,30.58
2022-12-08T10:48:28.875Z,38.30
2022-12-08T10:50:24.188Z,37.65
2022-12-08T10:52:24.118Z,64.90
2022-12-08T10:54:34.720Z,44.10
2022-12-08T10:56:29.179Z,31.92
2022-12-08T10:58:35.824Z,44.42
2022-12-08T11:00:28.112Z,46.20
2022-12-08T11:02:20.560Z,65.65
2022-12-08T11:04:21.582Z,52.40
2022-12-08T11:06:36.257Z,35.42
2022-12-08T11:08:23.776Z,38.47
2022-12-08T11:10:18.907Z,26.83
2022-12-08T11:12:15.091Z,35.70
2022-12-08T11:14:07.768Z,37.33
2022-12-08T11:15:56.123Z,30.92
2022-12-08T11:17:45.895Z,30.38
2022-12-08T11:19:55.097Z,33.88
2022-12-08T11:21:45.434Z,29.38
2022-12-08T11:23:36.780Z,25.27
2022-12-08T11:25:26.431Z,25.52
2022-12-08T11:27:13.873Z,23.80
2022-12-08T11:29:01.202Z,26.92
2022-12-08T11:31:00.832Z,31.95
2022-12-08T11:33:01.979Z,22.55
2022-12-08T11:35:03.961Z,20.95
2022-12-08T11:36:54.417Z,20.70
2022-12-08T11:38:46.566Z,24.52
2022-12-08T11:40:37.921Z,21.20
2022-12-08T11:42:32.632Z,19.75
2022-12-08T11:44:47.260Z,28.50
2022-12-08T11:46:45.245Z,23.45
2022-12-08T11:48:50.462Z,20.90
2022-12-08T11:51:15.621Z,26.45
2022-12-08T11:53:04.457Z,16.35
2022-12-08T11:55:09.847Z,16.85
2022-12-08T11:57:02.269Z,19.85
2022-12-08T11:59:02.958Z,20.77
2022-12-08T12:00:53.414Z,28.25
2022-12-08T12:02:47.394Z,19.17
2022-12-08T12:05:02.682Z,19.23
2022-12-08T12:07:38.968Z,21.05
2022-12-08T12:10:11.719Z,21.63
2022-12-08T12:12:13.998Z,18.27
2022-12-08T12:14:22.174Z,17.42
2022-12-08T12:16:34.998Z,15.00
2022-12-08T12:18:32.316Z,22.35
2022-12-08T12:20:33.073Z,23.90
2022-12-08T12:22:23.264Z,25.65
2022-12-08T12:24:26.076Z,17.23
2022-12-08T12:26:21.499Z,24.02
2022-12-08T12:28:13.236Z,75.10
2022-12-08T12:30:08.122Z,104.65
2022-12-08T12:31:59.403Z,42.28
2022-12-08T12:33:47.695Z,55.50
2022-12-08T12:35:43.311Z,19.08
2022-12-08T12:37:39.925Z,21.98
2022-12-08T12:39:32.555Z,31.27
2022-12-08T12:41:41.880Z,24.60
2022-12-08T12:43:37.524Z,24.50
2022-12-08T12:45:31.805Z,21.95
2022-12-08T12:47:54.093Z,18.20
2022-12-08T12:49:43.982Z,18.80
2022-12-08T12:51:54.121Z,19.73
2022-12-08T12:53:41.199Z,22.90
2022-12-08T12:55:50.211Z,16.48
2022-12-08T12:57:55.407Z,43.08
2022-12-08T13:00:17.880Z,26.48
2022-12-08T13:02:21.320Z,19.45
2022-12-08T13:04:10.793Z,23.73
2022-12-08T13:05:57.889Z,23.50
2022-12-08T13:08:03.669Z,23.13
2022-12-08T13:09:59.411Z,26.23
2022-12-08T13:12:19.685Z,26.88
2022-12-08T13:14:07.017Z,21.45
2022-12-08T13:16:18.473Z,24.48
2022-12-08T13:18:15.676Z,21.33
2022-12-08T13:20:07.254Z,25.97
2022-12-08T13:21:55.172Z,22.98
2022-12-08T13:23:46.870Z,20.70
2022-12-08T13:25:40.049Z,23.95
2022-12-08T13:27:34.382Z,30.55
2022-12-08T13:29:26.219Z,30.15
2022-12-08T13:31:35.192Z,38.35
2022-12-08T13:33:24.670Z,27.20
2022-12-08T13:35:12.574Z,25.13
2022-12-08T13:38:58.538Z,25.23
2022-12-08T13:40:46.924Z,25.42
2022-12-08T13:42:41.486Z,27.55
2022-12-08T13:53:22.306Z,40.00
2022-12-08T13:57:51.045Z,27.33
2022-12-08T13:59:44.479Z,30.50
2022-12-08T14:01:31.598Z,37.33
2022-12-08T14:03:19.238Z,37.88
2022-12-08T14:05:17.923Z,38.30
2022-12-08T14:07:06.147Z,38.78
2022-12-08T14:09:05.106Z,46.42
2022-12-08T14:11:02.369Z,36.33
2022-12-08T14:12:56.147Z,33.28
2022-12-08T14:15:02.568Z,34.03
2022-12-08T14:16:56.649Z,50.65
2022-12-08T14:18:43.782Z,66.47
2022-12-08T14:20:46.373Z,48.20
2022-12-08T14:22:41.102Z,42.85
2022-12-08T14:24:30.974Z,36.03
2022-12-08T14:26:18.649Z,33.30
2022-12-08T14:28:06.016Z,34.50
2022-12-08T14:30:00.203Z,30.63
2022-12-08T14:31:47.895Z,32.78
2022-12-08T14:33:35.277Z,35.35
2022-12-08T14:35:27.257Z,33.65
2022-12-08T14:37:15.339Z,36.45
2022-12-08T14:39:02.701Z,34.97
2022-12-08T14:41:05.543Z,31.00
2022-12-08T14:43:05.777Z,30.65
2022-12-08T14:45:01.172Z,33.65
2022-12-08T14:47:28.404Z,42.05
2022-12-08T14:49:39.781Z,40.72
2022-12-08T14:51:31.510Z,38.03
2022-12-08T14:53:18.808Z,48.03
2022-12-08T14:55:07.942Z,54.88
2022-12-08T14:56:56.331Z,44.05
2022-12-08T14:58:43.646Z,46.22
2022-12-08T15:00:31.516Z,53.28
2022-12-08T15:02:25.653Z,43.40
2022-12-08T15:04:12.798Z,45.92
2022-12-08T15:06:06.168Z,48.58
2022-12-08T15:07:59.544Z,165.93
2022-12-08T15:09:50.244Z,88.47
2022-12-08T15:11:37.725Z,73.05
2022-12-08T15:13:30.074Z,97.78
2022-12-08T15:15:17.707Z,144.25
2022-12-08T15:17:40.146Z,156.10
2022-12-08T15:19:33.291Z,69.68
2022-12-08T15:21:20.636Z,237.25
2022-12-08T15:23:41.974Z,206.25
2022-12-08T15:25:29.087Z,154.23
2022-12-08T15:27:21.070Z,62.38
2022-12-08T15:29:26.106Z,43.97
2022-12-08T15:31:14.092Z,37.58
2022-12-08T15:33:01.190Z,33.45
2022-12-08T15:34:49.728Z,44.55
2022-12-08T15:36:38.145Z,65.75
2022-12-08T15:38:28.723Z,76.18
2022-12-08T15:40:22.335Z,126.90
2022-12-08T15:42:13.267Z,138.57
2022-12-08T15:44:00.352Z,91.70
2022-12-08T15:45:58.342Z,51.30
2022-12-08T15:47:46.526Z,49.42
2022-12-08T15:49:33.810Z,59.67
2022-12-08T15:51:21.314Z,45.33
2022-12-08T15:53:10.823Z,36.85
2022-12-08T15:54:57.940Z,38.28
2022-12-08T15:57:18.505Z,47.13
2022-12-08T15:59:04.471Z,39.60
2022-12-08T16:00:54.687Z,55.20
2022-12-08T16:03:13.002Z,76.47
2022-12-08T16:07:20.419Z,48.72
2022-12-08T16:14:15.559Z,45.75
2022-12-08T16:15:59.686Z,61.30
2022-12-08T16:17:48.037Z,84.70
2022-12-08T16:19:35.192Z,147.05
2022-12-08T16:21:53.366Z,92.82
2022-12-08T16:23:46.156Z,128.02
2022-12-08T16:25:52.744Z,62.97
2022-12-08T16:29:49.961Z,125.40
2022-12-08T16:31:37.189Z,102.50
2022-12-08T16:33:24.833Z,61.20
2022-12-08T16:35:13.182Z,50.42
2022-12-08T16:37:00.403Z,48.15
2022-12-08T16:38:47.844Z,51.70
2022-12-08T16:40:55.030Z,55.20
2022-12-08T16:42:46.647Z,57.15
2022-12-08T16:44:34.212Z,37.72
2022-12-08T16:46:26.042Z,34.83
2022-12-08T16:48:15.125Z,32.70
2022-12-08T16:50:15.950Z,33.78
2022-12-08T16:52:03.089Z,34.95
2022-12-08T16:53:50.188Z,43.13
2022-12-08T16:55:38.962Z,46.75
2022-12-08T16:57:26.058Z,86.53
2022-12-08T16:59:13.198Z,43.50
2022-12-08T17:01:00.675Z,54.38
2022-12-08T17:02:48.861Z,38.45
2022-12-08T17:04:36.024Z,46.58
2022-12-08T17:06:23.525Z,92.35
2022-12-08T17:08:10.709Z,101.97
2022-12-08T17:09:58.848Z,75.30
2022-12-08T17:11:46.321Z,81.47
2022-12-08T17:13:37.537Z,97.10
2022-12-08T17:15:25.814Z,84.22
2022-12-08T17:17:13.490Z,94.50
2022-12-08T17:19:00.625Z,134.50
2022-12-08T17:20:47.831Z,122.13
2022-12-08T17:22:35.889Z,80.00
2022-12-08T17:24:25.073Z,75.65
2022-12-08T17:26:13.137Z,93.13
2022-12-08T17:28:01.485Z,140.68
2022-12-08T17:29:48.730Z,85.28
2022-12-08T17:31:36.065Z,73.35
2022-12-08T17:33:26.877Z,68.22
2022-12-08T17:35:14.549Z,57.83
2022-12-08T17:37:01.706Z,45.13
2022-12-08T17:38:49.230Z,47.30
2022-12-08T17:40:36.995Z,59.47
2022-12-08T17:42:27.381Z,55.22
2022-12-08T17:44:18.553Z,50.42
2022-12-08T17:46:06.173Z,72.20
2022-12-08T17:47:53.271Z,61.97
2022-12-08T17:49:40.910Z,75.80
2022-12-08T17:51:28.105Z,69.70
2022-12-08T17:53:15.610Z,72.32
2022-12-08T17:55:03.330Z,75.82
2022-12-08T17:56:50.649Z,50.38
2022-12-08T17:58:38.034Z,37.85
2022-12-08T18:00:25.655Z,42.40
2022-12-08T18:02:12.823Z,43.25
2022-12-08T18:04:02.234Z,44.83
2022-12-08T18:05:50.110Z,48.90
2022-12-08T18:07:37.320Z,67.40
2022-12-08T18:09:24.387Z,80.43
2022-12-08T18:11:16.095Z,72.55
2022-12-08T18:13:03.511Z,66.70
2022-12-08T18:14:51.735Z,110.30
2022-12-08T18:16:43.133Z,55.95
2022-12-08T18:18:30.281Z,48.10
2022-12-08T18:20:17.872Z,72.60
2022-12-08T18:22:05.996Z,84.85
2022-12-08T18:23:53.238Z,67.18
2022-12-08T18:25:40.551Z,66.47
2022-12-08T18:27:28.046Z,71.47
2022-12-08T18:29:15.310Z,89.10
2022-12-08T18:31:07.273Z,86.97
2022-12-08T18:32:57.416Z,114.60
2022-12-08T18:34:46.861Z,132.20
2022-12-08T18:36:34.645Z,123.80
2022-12-08T18:38:22.155Z,86.47
2022-12-08T18:40:10.719Z,112.05
2022-12-08T18:41:59.691Z,84.68
2022-12-08T18:43:47.159Z,99.38
2022-12-08T18:45:36.815Z,84.68
2022-12-08T18:47:23.941Z,65.55
2022-12-08T18:49:13.039Z,79.78
2022-12-08T18:51:00.370Z,95.43
2022-12-08T18:52:48.081Z,85.78
2022-12-08T18:55:04.731Z,80.55
2022-12-08T18:56:44.302Z,92.80
2022-12-08T18:58:31.549Z,123.88
2022-12-08T19:00:19.910Z,85.47
2022-12-08T19:02:07.800Z,82.25
2022-12-08T19:04:19.802Z,84.05
2022-12-08T19:07:54.177Z,51.60
2022-12-08T19:09:42.174Z,61.85
2022-12-08T19:11:29.620Z,45.17
2022-12-08T19:13:17.471Z,48.17
2022-12-08T19:15:05.927Z,56.17
2022-12-08T19:16:54.609Z,50.95
2022-12-08T19:18:42.075Z,53.83
2022-12-08T19:20:29.454Z,53.42
2022-12-08T19:22:17.495Z,78.95
2022-12-08T19:24:05.993Z,47.75
2022-12-08T19:25:53.674Z,74.80
2022-12-08T19:27:41.279Z,48.53
2022-12-08T19:29:29.223Z,51.17
2022-12-08T19:31:16.605Z,49.17
2022-12-08T19:33:04.116Z,137.13
2022-12-08T19:34:51.934Z,63.83
2022-12-08T19:36:42.801Z,70.93
2022-12-08T19:38:32.810Z,65.15
2022-12-08T19:40:38.651Z,80.47
2022-12-08T19:42:45.244Z,58.00
2022-12-08T19:44:51.314Z,63.42
2022-12-08T19:46:40.519Z,41.63
2022-12-08T19:48:30.781Z,43.05
2022-12-08T19:50:37.526Z,79.50
2022-12-08T19:52:28.494Z,44.05
2022-12-08T19:54:16.321Z,64.95
2022-12-08T19:56:04.191Z,100.57
2022-12-08T19:57:52.992Z,92.20
2022-12-08T19:59:40.538Z,90.50
2022-12-08T20:03:21.290Z,123.70
2022-12-08T20:05:10.141Z,128.18
2022-12-08T20:06:58.035Z,89.78
2022-12-08T20:08:50.372Z,150.20
2022-12-08T20:10:41.914Z,129.40
2022-12-08T20:12:30.216Z,138.38
2022-12-08T20:14:18.594Z,104.10
2022-12-08T20:16:06.356Z,131.65
2022-12-08T20:17:54.846Z,117.28
2022-12-08T20:19:42.993Z,146.70
2022-12-08T20:21:30.954Z,175.05
2022-12-08T20:23:18.715Z,169.27
2022-12-08T20:25:06.587Z,115.80
2022-12-08T20:29:38.860Z,81.65
2022-12-08T20:31:30.313Z,115.13
2022-12-08T20:33:19.317Z,129.68
2022-12-08T20:35:07.440Z,90.50
2022-12-08T20:36:55.239Z,76.80
2022-12-08T20:38:42.797Z,78.78
2022-12-08T20:40:30.015Z,89.90
2022-12-08T20:42:19.135Z,99.53
2022-12-08T20:44:07.444Z,115.72
2022-12-08T20:45:54.725Z,113.20
2022-12-08T20:47:42.288Z,122.25
2022-12-08T20:49:34.575Z,120.13
2022-12-08T20:51:25.746Z,125.95
2022-12-08T20:53:17.947Z,118.25
2022-12-08T20:55:07.554Z,124.57
2022-12-08T20:56:55.018Z,147.93
2022-12-08T20:58:42.893Z,144.60
2022-12-08T21:00:30.221Z,150.32
2022-12-08T21:02:17.576Z,118.15
2022-12-08T21:04:05.328Z,95.80
2022-12-08T21:05:53.223Z,106.13
2022-12-08T21:13:03.092Z,94.35
2022-12-08T21:14:50.831Z,73.38
2022-12-08T21:16:39.290Z,188.05
2022-12-08T21:18:27.008Z,142.48
2022-12-08T21:22:02.854Z,210.70
2022-12-08T21:23:50.453Z,263.50
2022-12-08T21:25:46.368Z,225.38
2022-12-08T21:27:33.787Z,176.98
2022-12-08T21:29:21.723Z,125.25
2022-12-08T21:31:14.950Z,96.32
2022-12-08T21:33:03.309Z,74.22
2022-12-08T21:34:51.510Z,60.22
2022-12-08T21:36:39.121Z,67.90
2022-12-08T21:38:26.287Z,86.53
2022-12-08T21:40:14.393Z,95.40
2022-12-08T21:42:22.842Z,135.30
2022-12-08T21:44:12.685Z,139.32
2022-12-08T21:46:00.297Z,111.35
2022-12-08T21:47:49.694Z,114.18
2022-12-08T21:49:37.112Z,93.90
2022-12-08T21:51:24.613Z,90.32
2022-12-08T21:53:12.831Z,110.97
2022-12-08T21:55:00.032Z,108.25
2022-12-08T21:56:49.412Z,102.55
2022-12-08T21:58:37.073Z,111.95
2022-12-08T22:00:24.788Z,101.47
2022-12-08T22:02:18.033Z,101.57
2022-12-08T22:04:08.385Z,94.93
2022-12-08T22:05:55.640Z,89.60
2022-12-08T22:07:43.376Z,85.60
2022-12-08T22:09:31.524Z,77.22
2022-12-08T22:11:19.303Z,67.43
2022-12-08T22:13:06.619Z,63.15
2022-12-08T22:14:54.090Z,85.15
2022-12-08T22:16:41.529Z,76.60
2022-12-08T22:18:30.952Z,70.25
2022-12-08T22:20:19.083Z,72.93
2022-12-08T22:22:06.444Z,77.68
2022-12-08T22:23:53.791Z,76.78
2022-12-08T22:25:41.721Z,83.35
2022-12-08T22:27:29.353Z,81.03
2022-12-08T22:29:16.903Z,78.05
2022-12-08T22:31:12.956Z,92.80
2022-12-08T22:32:59.994Z,119.80
2022-12-08T22:34:47.757Z,89.43
2022-12-08T22:36:35.246Z,248.82
2022-12-08T22:38:22.345Z,182.43
2022-12-08T22:40:11.378Z,384.63
2022-12-08T22:41:59.186Z,316.58
2022-12-08T22:43:47.380Z,260.75
2022-12-08T22:45:34.477Z,282.58
2022-12-08T22:47:21.920Z,209.85
2022-12-08T22:49:08.925Z,210.32
2022-12-08T22:51:02.584Z,314.08
2022-12-08T22:52:49.941Z,339.55
2022-12-08T22:54:36.946Z,190.27
2022-12-08T22:56:24.152Z,194.83
2022-12-08T22:58:12.308Z,208.38
2022-12-08T23:01:46.840Z,110.28
2022-12-08T23:03:34.726Z,169.95
2022-12-08T23:05:21.997Z,159.60
2022-12-08T23:07:09.323Z,157.57
2022-12-08T23:08:57.256Z,248.15
2022-12-08T23:11:40.244Z,174.68
2022-12-08T23:13:28.572Z,202.27
2022-12-08T23:15:15.602Z,183.85
2022-12-08T23:17:02.957Z,173.05
2022-12-08T23:18:50.489Z,279.88
2022-12-08T23:20:37.813Z,212.10
2022-12-08T23:22:24.977Z,138.98
2022-12-08T23:24:12.541Z,193.90
2022-12-08T23:25:59.679Z,193.63
2022-12-08T23:27:47.664Z,165.70
2022-12-08T23:29:34.989Z,186.40
2022-12-08T23:31:22.990Z,168.25
2022-12-08T23:33:10.194Z,204.30
2022-12-08T23:34:57.876Z,153.27
2022-12-08T23:36:44.924Z,119.77
2022-12-08T23:38:32.082Z,140.63
2022-12-08T23:40:19.787Z,208.27
2022-12-08T23:42:06.967Z,198.85
2022-12-08T23:43:54.176Z,148.40
2022-12-08T23:45:41.745Z,108.53
2022-12-08T23:47:29.024Z,100.40
2022-12-08T23:49:16.509Z,109.47
2022-12-08T23:51:04.117Z,151.40
2022-12-08T23:52:51.365Z,124.43
2022-12-08T23:54:38.702Z,80.15
2022-12-08T23:56:30.240Z,105.35
2022-12-08T23:58:18.235Z,103.03
